Time;durP1;ratioP1;P1;durP2;ratioP2;P2;SDS_P1;SDS_P2;PMS_P1;PMS_P2;Temp;Humidity;BMP_temperature;BMP_pressure;BME280_temperature;BME280_humidity;BME280_pressure;Samples;Min_cycle;Max_cycle;Signal;HPM_P1;HPM_P2
2022/01/24 00:01:28;;;;;;;10.70;8.17;;;-1.40;99.90;;;;;;5052395;28;20499;-77
2022/01/24 00:03:57;;;;;;;13.67;8.67;;;-1.40;99.90;;;;;;5052225;28;20486;-77
2022/01/24 00:06:25;;;;;;;14.13;9.00;;;-1.40;99.90;;;;;;5052100;28;20465;-77
2022/01/24 00:08:52;;;;;;;13.00;8.60;;;-1.60;99.90;;;;;;5052278;28;20755;-77
2022/01/24 00:11:23;;;;;;;14.87;7.90;;;-1.50;99.90;;;;;;5052027;28;20474;-78
2022/01/24 00:17:07;;;;;;;12.47;7.53;;;-1.40;99.90;;;;;;5055264;28;20994;-77
2022/01/24 00:27:49;;;;;;;12.47;7.90;;;-1.10;99.90;;;;;;5051641;28;20457;-77
2022/01/24 00:30:17;;;;;;;13.90;8.07;;;-1.10;99.90;;;;;;5051518;28;20462;-77
2022/01/24 00:32:45;;;;;;;12.70;7.50;;;-1.20;99.90;;;;;;5051390;28;20456;-77
2022/01/24 00:35:14;;;;;;;12.63;8.40;;;-1.20;99.90;;;;;;5051457;28;20458;-76
2022/01/24 00:37:41;;;;;;;12.97;7.80;;;-1.10;99.90;;;;;;5051567;28;20537;-77
2022/01/24 00:40:09;;;;;;;13.93;8.30;;;-1.00;99.90;;;;;;5051523;28;20462;-76
2022/01/24 00:42:47;;;;;;;13.33;8.53;;;-0.90;99.90;;;;;;5051107;28;20492;-77
2022/01/24 00:45:25;;;;;;;15.67;8.40;;;-1.00;99.90;;;;;;5051002;28;20467;-77
2022/01/24 00:48:10;;;;;;;13.60;8.13;;;-1.00;99.90;;;;;;5051094;28;20479;-76
2022/01/24 00:53:31;;;;;;;17.83;8.70;;;-1.20;99.90;;;;;;5050900;28;20431;-77
2022/01/24 00:55:59;;;;;;;15.33;8.70;;;-1.20;99.90;;;;;;5050965;28;20453;-77
2022/01/24 00:58:26;;;;;;;13.60;8.80;;;-1.20;99.90;;;;;;5050001;28;20524;-77
2022/01/24 01:00:54;;;;;;;12.27;8.40;;;-1.10;99.90;;;;;;5050836;28;20547;-76
2022/01/24 01:03:24;;;;;;;17.10;8.13;;;-1.00;99.90;;;;;;5050797;28;21177;-77
2022/01/24 01:06:04;;;;;;;11.73;9.13;;;-0.90;99.90;;;;;;5050587;28;20458;-77
2022/01/24 01:19:31;;;;;;;12.10;8.70;;;-1.20;99.90;;;;;;5050530;28;20441;-76
2022/01/24 01:21:58;;;;;;;12.47;7.73;;;-1.40;99.90;;;;;;5050951;28;20490;-77
2022/01/24 01:24:26;;;;;;;12.97;8.40;;;-1.40;99.90;;;;;;5050521;28;21085;-77
2022/01/24 01:26:58;;;;;;;14.90;9.27;;;-1.40;99.90;;;;;;5050346;28;20726;-78
2022/01/24 01:29:29;;;;;;;12.50;8.43;;;-1.40;99.90;;;;;;5049953;28;20959;-77
2022/01/24 01:32:08;;;;;;;17.23;8.63;;;-1.40;99.90;;;;;;5050451;28;20463;-77
2022/01/24 01:35:02;;;;;;;12.43;8.00;;;-1.50;99.90;;;;;;5050142;28;20456;-77
2022/01/24 01:56:41;;;;;;;17.80;9.10;;;-1.50;99.90;;;;;;5050312;28;20770;-69
2022/01/24 01:59:08;;;;;;;15.17;9.33;;;-1.40;99.90;;;;;;5049647;28;20522;-69
2022/01/24 02:01:36;;;;;;;14.17;9.97;;;-1.30;99.90;;;;;;5049921;28;20458;-70
2022/01/24 02:04:05;;;;;;;12.10;8.33;;;-1.40;99.90;;;;;;5049503;28;20496;-70
2022/01/24 02:06:34;;;;;;;16.40;8.93;;;-1.40;99.90;;;;;;5049808;28;20877;-68
2022/01/24 02:09:06;;;;;;;13.07;9.77;;;-1.50;99.90;;;;;;5049396;28;20483;-70
2022/01/24 02:11:33;;;;;;;16.07;9.13;;;-1.60;99.90;;;;;;5049705;28;20506;-68
2022/01/24 02:14:04;;;;;;;14.40;9.60;;;-1.80;99.90;;;;;;5049629;28;20448;-67
2022/01/24 02:16:34;;;;;;;14.00;9.87;;;-1.80;99.90;;;;;;5049052;28;20922;-66
2022/01/24 02:19:14;;;;;;;14.67;8.60;;;-1.90;99.90;;;;;;5048968;28;20990;-69
2022/01/24 02:21:47;;;;;;;12.27;9.23;;;-1.80;99.90;;;;;;5049637;28;20504;-68
2022/01/24 02:24:18;;;;;;;17.10;9.20;;;-1.70;99.90;;;;;;5049435;28;20517;-70
2022/01/24 02:26:48;;;;;;;20.23;10.60;;;-1.80;99.90;;;;;;5049498;28;20458;-68
2022/01/24 02:29:26;;;;;;;17.10;10.13;;;-1.90;99.90;;;;;;5049370;28;20476;-70
2022/01/24 02:31:55;;;;;;;17.03;9.40;;;-1.90;99.90;;;;;;5049552;28;20459;-66
2022/01/24 02:34:33;;;;;;;13.80;9.50;;;-1.70;99.90;;;;;;5049305;28;20580;-70
2022/01/24 02:37:04;;;;;;;17.57;10.03;;;-1.60;99.90;;;;;;5048962;28;20821;-68
2022/01/24 02:39:45;;;;;;;18.33;9.60;;;-1.60;99.90;;;;;;5048870;28;20934;-70
2022/01/24 02:53:12;;;;;;;15.60;9.60;;;-1.70;99.90;;;;;;5025982;28;21056;-69
2022/01/24 02:55:40;;;;;;;15.37;9.60;;;-1.70;99.90;;;;;;5049165;28;20448;-67
2022/01/24 02:58:08;;;;;;;17.17;10.43;;;-1.60;99.90;;;;;;5049047;28;20476;-68
2022/01/24 03:00:36;;;;;;;12.93;10.07;;;-1.70;99.90;;;;;;5049147;28;20448;-67
2022/01/24 03:03:03;;;;;;;13.10;9.50;;;-1.60;99.90;;;;;;5048988;28;20452;-68
2022/01/24 03:05:31;;;;;;;16.60;10.10;;;-1.50;99.90;;;;;;5048851;28;20490;-68
2022/01/24 03:07:59;;;;;;;15.57;9.53;;;-1.60;99.90;;;;;;5048996;28;20841;-71
2022/01/24 03:10:34;;;;;;;17.63;9.50;;;-1.60;99.90;;;;;;5048824;28;20469;-70
2022/01/24 03:13:17;;;;;;;18.17;10.90;;;-1.50;99.90;;;;;;5047615;28;20541;-67
2022/01/24 03:15:46;;;;;;;18.23;10.47;;;-1.50;99.90;;;;;;5049134;28;20905;-70
2022/01/24 03:18:13;;;;;;;17.10;9.97;;;-1.60;99.90;;;;;;5048901;28;20500;-70
2022/01/24 03:20:41;;;;;;;18.33;10.53;;;-1.50;99.90;;;;;;5050089;28;20449;-71
2022/01/24 03:23:08;;;;;;;15.73;9.10;;;-1.40;99.90;;;;;;5052807;28;20485;-67
2022/01/24 03:25:37;;;;;;;14.70;9.47;;;-1.20;99.90;;;;;;5052405;28;20945;-70
2022/01/24 03:28:05;;;;;;;15.00;9.73;;;-1.20;99.90;;;;;;5052449;28;20488;-69
2022/01/24 03:30:33;;;;;;;15.80;9.87;;;-1.10;99.90;;;;;;5052888;28;20454;-68
2022/01/24 03:33:00;;;;;;;14.47;9.03;;;-1.10;99.90;;;;;;5052649;28;20460;-69
2022/01/24 03:35:28;;;;;;;14.73;9.40;;;-0.90;99.90;;;;;;5052105;28;20452;-69
2022/01/24 03:37:55;;;;;;;18.50;9.10;;;-1.00;99.90;;;;;;5052238;28;20481;-67
2022/01/24 03:40:22;;;;;;;13.57;10.23;;;-0.90;99.90;;;;;;5052432;28;20862;-66
2022/01/24 03:42:51;;;;;;;15.63;11.20;;;-0.90;99.90;;;;;;5052558;28;20465;-67
2022/01/24 03:45:24;;;;;;;16.53;10.80;;;-0.90;99.90;;;;;;5052384;28;20484;-69
2022/01/24 03:48:05;;;;;;;16.20;10.20;;;-0.70;99.90;;;;;;5052152;28;20607;-68
2022/01/24 03:50:32;;;;;;;14.50;9.30;;;-0.70;99.90;;;;;;5052012;28;20485;-67
2022/01/24 03:52:59;;;;;;;15.23;9.97;;;-0.60;99.90;;;;;;5052001;28;20453;-69
2022/01/24 03:55:26;;;;;;;18.00;9.63;;;-0.50;99.90;;;;;;5051649;28;21010;-69
2022/01/24 03:57:55;;;;;;;12.90;8.70;;;-0.60;99.90;;;;;;5051807;28;20474;-69
2022/01/24 04:00:22;;;;;;;14.03;10.00;;;-0.70;99.90;;;;;;5052057;28;20522;-68
2022/01/24 04:02:49;;;;;;;15.43;11.93;;;-0.60;99.90;;;;;;5051387;28;20463;-68
2022/01/24 04:05:16;;;;;;;17.47;11.77;;;-0.50;99.90;;;;;;5051440;28;20493;-70
2022/01/24 04:07:44;;;;;;;20.10;13.10;;;-0.40;99.90;;;;;;5051622;28;20838;-70
2022/01/24 04:10:12;;;;;;;17.13;12.20;;;-0.20;99.90;;;;;;5051435;28;20552;-68
2022/01/24 04:12:41;;;;;;;15.97;11.20;;;-0.20;99.90;;;;;;5051638;28;20457;-67
2022/01/24 04:15:23;;;;;;;16.27;12.23;;;-0.10;99.90;;;;;;5051410;28;20547;-70
2022/01/24 04:18:08;;;;;;;15.67;11.53;;;-0.10;99.90;;;;;;5050879;28;20504;-68
2022/01/24 04:23:20;;;;;;;14.30;10.20;;;0.00;99.90;;;;;;5051641;28;20508;-68
2022/01/24 04:25:48;;;;;;;15.07;9.40;;;-0.10;99.90;;;;;;5051438;28;20884;-69
2022/01/24 04:28:15;;;;;;;13.57;9.97;;;-0.10;99.90;;;;;;5051306;28;20477;-68
2022/01/24 04:30:44;;;;;;;14.67;9.60;;;-0.10;99.90;;;;;;5051158;28;20557;-68
2022/01/24 04:33:12;;;;;;;14.07;9.77;;;-0.10;99.90;;;;;;5050930;28;20565;-69
2022/01/24 04:35:39;;;;;;;12.30;8.63;;;-0.10;99.90;;;;;;5051279;28;20939;-70
2022/01/24 04:38:06;;;;;;;16.23;10.97;;;-0.10;99.90;;;;;;5051079;28;20488;-67
2022/01/24 04:40:33;;;;;;;13.97;9.97;;;0.00;99.90;;;;;;5051028;28;20460;-69
2022/01/24 04:43:22;;;;;;;16.77;11.93;;;-0.10;99.90;;;;;;5051177;28;20450;-68
2022/01/24 04:46:05;;;;;;;15.50;11.40;;;-0.10;99.90;;;;;;5051079;28;20490;-67
2022/01/24 04:51:31;;;;;;;18.73;10.80;;;-0.10;99.90;;;;;;5051021;28;20579;-70
2022/01/24 04:56:45;;;;;;;15.07;9.63;;;-0.10;99.90;;;;;;5032684;28;20446;-68
2022/01/24 04:59:13;;;;;;;16.83;11.47;;;-0.10;99.90;;;;;;5050705;28;20843;-70
2022/01/24 05:01:41;;;;;;;18.67;10.80;;;-0.10;99.90;;;;;;5050546;28;20884;-68
2022/01/24 05:04:08;;;;;;;14.50;9.90;;;0.00;99.90;;;;;;5050661;28;20534;-69
2022/01/24 05:06:35;;;;;;;16.53;10.57;;;-0.20;99.90;;;;;;5050396;28;20461;-66
2022/01/24 05:09:04;;;;;;;17.30;10.80;;;-0.30;99.90;;;;;;5050112;28;20992;-69
2022/01/24 05:11:38;;;;;;;21.67;11.23;;;-0.50;99.90;;;;;;5050384;28;20555;-69
2022/01/24 05:25:05;;;;;;;13.60;10.13;;;-0.20;99.90;;;;;;5050542;28;20526;-79
2022/01/24 05:27:32;;;;;;;15.77;8.80;;;-0.20;99.90;;;;;;5050781;28;20474;-79
2022/01/24 05:29:59;;;;;;;11.30;8.27;;;-0.10;99.90;;;;;;5051021;28;20464;-80
2022/01/24 05:32:27;;;;;;;15.23;8.97;;;-0.20;99.90;;;;;;5050007;28;20458;-76
2022/01/24 05:34:55;;;;;;;16.00;10.13;;;-0.30;99.90;;;;;;5050435;28;20456;-79
2022/01/24 05:37:22;;;;;;;12.33;8.47;;;-0.40;99.90;;;;;;5050338;28;20473;-79
2022/01/24 05:39:49;;;;;;;14.60;9.77;;;-0.40;99.90;;;;;;5050475;28;20516;-79
2022/01/24 05:42:21;;;;;;;15.57;9.77;;;-0.40;99.90;;;;;;5050303;28;20494;-81
2022/01/24 05:44:49;;;;;;;13.43;8.77;;;-0.40;99.90;;;;;;5049759;28;20504;-77
2022/01/24 05:47:16;;;;;;;11.83;8.90;;;-0.40;99.90;;;;;;5050042;28;20496;-75
2022/01/24 05:49:45;;;;;;;14.20;8.37;;;-0.40;99.90;;;;;;5050081;28;20454;-79
2022/01/24 05:52:12;;;;;;;14.47;8.30;;;-0.30;99.90;;;;;;5049961;28;20807;-75
2022/01/24 05:54:40;;;;;;;13.23;8.17;;;-0.40;99.90;;;;;;5049856;28;20446;-76
2022/01/24 05:57:08;;;;;;;11.87;7.57;;;-0.30;99.90;;;;;;5049962;28;20457;-76
2022/01/24 05:59:36;;;;;;;8.60;6.33;;;-0.30;99.90;;;;;;5049871;28;20456;-76
2022/01/24 06:02:04;;;;;;;11.17;7.47;;;-0.30;99.90;;;;;;5049619;28;20457;-76
2022/01/24 06:04:31;;;;;;;11.90;6.77;;;-0.40;99.90;;;;;;5049704;28;20493;-71
2022/01/24 06:06:59;;;;;;;10.47;7.13;;;-0.50;99.90;;;;;;5049867;28;20457;-73
2022/01/24 06:09:26;;;;;;;11.13;7.17;;;-0.70;99.90;;;;;;5049583;28;20471;-69
2022/01/24 06:11:53;;;;;;;12.73;6.87;;;-0.50;99.90;;;;;;5049518;28;20954;-68
2022/01/24 06:14:20;;;;;;;13.40;8.03;;;-0.40;99.90;;;;;;5049832;28;20446;-67
2022/01/24 06:16:48;;;;;;;16.00;7.10;;;-0.30;99.90;;;;;;5049913;28;20481;-69
2022/01/24 06:19:15;;;;;;;12.93;7.60;;;-0.20;99.90;;;;;;5050282;28;20858;-71
2022/01/24 06:21:44;;;;;;;11.67;6.57;;;-0.40;99.90;;;;;;5049682;28;20513;-69
2022/01/24 06:24:13;;;;;;;12.27;6.67;;;-0.40;99.90;;;;;;5049102;28;20464;-69
2022/01/24 06:26:41;;;;;;;10.70;6.37;;;-0.20;99.90;;;;;;5049096;28;20453;-69
2022/01/24 06:29:08;;;;;;;9.40;6.40;;;-0.20;99.90;;;;;;5049143;28;20471;-72
2022/01/24 06:31:35;;;;;;;10.30;7.00;;;-0.10;99.90;;;;;;5049253;28;20844;-68
2022/01/24 06:34:02;;;;;;;11.60;6.43;;;-0.10;99.90;;;;;;5049031;28;20456;-72
2022/01/24 06:36:29;;;;;;;11.93;7.70;;;-0.10;99.90;;;;;;5049218;28;20507;-70
2022/01/24 06:38:56;;;;;;;9.40;6.03;;;-0.10;99.90;;;;;;5049049;28;20477;-71
2022/01/24 06:41:29;;;;;;;6.83;5.30;;;-0.20;99.90;;;;;;5047854;28;20458;-70
2022/01/24 06:43:56;;;;;;;14.93;6.50;;;-0.10;99.90;;;;;;5049095;28;20464;-72
2022/01/24 06:46:23;;;;;;;10.77;7.10;;;0.00;99.90;;;;;;5048977;28;20983;-73
2022/01/24 06:48:50;;;;;;;9.83;7.10;;;-0.10;99.90;;;;;;5049176;28;20466;-73
2022/01/24 06:51:19;;;;;;;11.00;6.50;;;-0.10;99.90;;;;;;5049398;28;20488;-74
2022/01/24 06:53:47;;;;;;;14.80;8.37;;;-0.30;99.90;;;;;;5048790;28;20965;-72
2022/01/24 06:56:15;;;;;;;13.73;7.60;;;-0.20;99.90;;;;;;5053374;28;20461;-73
2022/01/24 06:58:44;;;;;;;10.90;6.30;;;-0.20;99.90;;;;;;5053428;28;20480;-74
2022/01/24 07:01:12;;;;;;;8.50;5.27;;;-0.40;99.90;;;;;;5053127;28;20459;-74
2022/01/24 07:03:39;;;;;;;10.33;5.50;;;-0.30;99.90;;;;;;5053049;28;20953;-73
2022/01/24 07:06:06;;;;;;;9.30;5.67;;;-0.40;98.90;;;;;;5052958;28;21005;-75
2022/01/24 07:08:33;;;;;;;9.00;5.70;;;-0.30;98.90;;;;;;5052533;28;20477;-73
2022/01/24 07:11:00;;;;;;;6.10;4.00;;;-0.20;99.90;;;;;;5052979;28;20457;-74
2022/01/24 07:13:27;;;;;;;10.83;5.67;;;0.00;99.90;;;;;;5052607;28;20462;-71
2022/01/24 07:16:00;;;;;;;8.97;5.13;;;0.10;99.90;;;;;;5052353;28;20822;-75
2022/01/24 07:21:12;;;;;;;12.60;6.37;;;0.40;98.60;;;;;;5052656;28;20845;-73
2022/01/24 07:23:40;;;;;;;9.17;5.40;;;0.30;97.60;;;;;;5052598;28;20599;-69
2022/01/24 07:26:07;;;;;;;7.40;4.77;;;0.40;98.90;;;;;;5052585;28;20965;-70
2022/01/24 07:28:34;;;;;;;10.00;6.27;;;0.50;99.40;;;;;;5052523;28;20472;-70
2022/01/24 07:31:02;;;;;;;7.90;5.10;;;0.60;98.20;;;;;;5051903;28;20458;-74
2022/01/24 07:33:29;;;;;;;8.23;5.43;;;0.80;97.30;;;;;;5052133;28;20945;-73
2022/01/24 07:35:57;;;;;;;7.63;5.50;;;0.90;97.00;;;;;;5052552;28;20445;-76
2022/01/24 07:38:24;;;;;;;10.77;6.20;;;0.90;97.40;;;;;;5051990;28;20477;-75
2022/01/24 07:40:53;;;;;;;8.90;5.60;;;0.70;98.60;;;;;;5051799;28;20458;-76
2022/01/24 07:43:21;;;;;;;7.97;4.93;;;0.80;98.10;;;;;;5052156;28;20461;-70
2022/01/24 07:45:49;;;;;;;9.40;5.83;;;0.60;97.90;;;;;;5052002;28;20549;-71
2022/01/24 07:48:19;;;;;;;10.33;6.00;;;0.60;98.60;;;;;;5051783;28;20473;-70
2022/01/24 07:50:47;;;;;;;11.57;7.20;;;0.70;98.30;;;;;;5052320;28;20805;-71
2022/01/24 07:53:16;;;;;;;12.23;7.40;;;0.90;97.20;;;;;;5052329;28;20790;-72
2022/01/24 07:55:44;;;;;;;13.07;6.77;;;0.90;96.90;;;;;;5052210;28;20927;-73
2022/01/24 07:58:11;;;;;;;11.33;7.73;;;0.90;96.90;;;;;;5051698;28;20483;-73
2022/01/24 08:00:39;;;;;;;14.80;8.47;;;0.80;97.90;;;;;;5052095;28;20451;-72
2022/01/24 08:03:07;;;;;;;12.67;6.80;;;0.90;97.50;;;;;;5050430;28;20446;-73
2022/01/24 08:05:37;;;;;;;12.67;7.83;;;0.80;97.90;;;;;;5050998;28;21060;-74
2022/01/24 08:08:06;;;;;;;13.80;7.93;;;0.80;97.70;;;;;;5051270;28;20469;-68
2022/01/24 08:10:33;;;;;;;17.27;8.80;;;0.70;98.30;;;;;;5051914;28;20462;-68
2022/01/24 08:13:00;;;;;;;11.73;7.63;;;0.80;98.70;;;;;;5051445;28;20992;-69
2022/01/24 08:15:27;;;;;;;13.17;7.50;;;0.90;98.70;;;;;;5051448;28;20812;-74
2022/01/24 08:17:55;;;;;;;10.70;6.90;;;1.00;98.50;;;;;;5051151;28;20486;-73
2022/01/24 08:20:23;;;;;;;10.93;6.63;;;1.10;98.10;;;;;;5051070;28;20457;-72
2022/01/24 08:22:51;;;;;;;10.50;5.87;;;1.30;97.50;;;;;;5051638;28;20457;-73
2022/01/24 08:25:19;;;;;;;8.70;5.73;;;1.40;97.10;;;;;;5051125;28;20958;-74
2022/01/24 08:27:47;;;;;;;13.50;7.30;;;1.30;97.40;;;;;;5051353;28;20948;-72
2022/01/24 08:30:18;;;;;;;11.10;7.70;;;1.40;96.80;;;;;;5050950;28;20523;-70
2022/01/24 08:32:46;;;;;;;18.20;11.37;;;1.30;97.10;;;;;;5051417;28;20504;-68
2022/01/24 08:35:14;;;;;;;14.93;9.10;;;1.40;97.20;;;;;;5051055;28;20459;-69
2022/01/24 08:37:42;;;;;;;11.40;7.50;;;1.50;97.80;;;;;;5051331;28;20455;-69
2022/01/24 08:40:19;;;;;;;12.97;6.77;;;1.70;97.40;;;;;;5051102;28;20990;-67
2022/01/24 08:42:55;;;;;;;11.73;7.27;;;1.80;96.50;;;;;;5050876;28;20459;-69
2022/01/24 08:48:08;;;;;;;12.23;8.40;;;2.00;95.00;;;;;;5051380;28;20494;-72
2022/01/24 08:50:35;;;;;;;13.73;8.23;;;2.10;95.80;;;;;;5050962;28;20525;-78
2022/01/24 08:53:03;;;;;;;13.90;8.90;;;2.20;97.40;;;;;;5050914;28;20459;-68
2022/01/24 08:55:32;;;;;;;11.13;6.20;;;2.40;94.90;;;;;;5050739;28;20477;-69
2022/01/24 08:58:01;;;;;;;15.30;8.47;;;2.20;93.50;;;;;;5050597;28;20755;-71
2022/01/24 09:00:29;;;;;;;11.57;8.03;;;2.30;94.40;;;;;;5050776;28;20459;-71
2022/01/24 09:02:56;;;;;;;13.30;7.57;;;2.30;94.80;;;;;;5050363;28;20945;-70
2022/01/24 09:05:24;;;;;;;14.37;8.47;;;2.20;95.80;;;;;;5034241;28;20587;-73
2022/01/24 09:07:52;;;;;;;11.87;7.03;;;2.40;95.40;;;;;;5031253;28;20512;-67
2022/01/24 09:10:23;;;;;;;11.47;7.53;;;2.40;95.00;;;;;;5031362;28;20452;-71
2022/01/24 09:12:52;;;;;;;10.83;7.93;;;2.40;94.70;;;;;;5033048;28;20569;-70
2022/01/24 09:15:19;;;;;;;15.10;8.97;;;2.10;95.30;;;;;;5034168;28;20467;-67
2022/01/24 09:17:47;;;;;;;13.23;8.57;;;1.90;95.90;;;;;;5030066;28;20845;-71
2022/01/24 09:20:14;;;;;;;16.43;8.57;;;2.00;95.10;;;;;;5030341;28;20455;-73
2022/01/24 09:22:41;;;;;;;13.47;8.87;;;2.30;94.60;;;;;;5030506;28;20524;-70
2022/01/24 09:25:10;;;;;;;18.53;7.97;;;2.50;94.20;;;;;;5030217;28;20455;-72
2022/01/24 09:27:38;;;;;;;14.80;8.60;;;2.70;94.40;;;;;;5029713;28;20928;-70
2022/01/24 09:30:09;;;;;;;12.53;7.73;;;3.00;93.10;;;;;;5030430;28;20467;-69
2022/01/24 09:32:36;;;;;;;11.60;7.23;;;3.10;91.50;;;;;;5030242;28;20454;-69
2022/01/24 09:35:05;;;;;;;10.77;7.80;;;3.40;92.00;;;;;;5030104;28;20801;-69
2022/01/24 09:37:32;;;;;;;16.20;8.90;;;3.70;90.80;;;;;;5030179;28;20443;-71
2022/01/24 09:40:00;;;;;;;12.57;7.63;;;3.90;86.70;;;;;;5030176;28;20861;-71
2022/01/24 09:42:27;;;;;;;13.47;9.30;;;4.30;86.00;;;;;;5029915;28;20455;-70
2022/01/24 09:44:56;;;;;;;12.50;7.60;;;4.40;87.40;;;;;;5029867;28;20866;-72
2022/01/24 09:47:24;;;;;;;14.30;9.00;;;4.50;82.70;;;;;;5029664;28;20495;-71
2022/01/24 09:49:53;;;;;;;11.93;7.50;;;4.40;84.60;;;;;;5030015;28;20506;-69
2022/01/24 09:52:20;;;;;;;12.67;8.80;;;4.30;83.50;;;;;;5030261;28;20464;-70
2022/01/24 09:54:47;;;;;;;12.63;8.53;;;4.10;83.30;;;;;;5029366;28;20454;-71
2022/01/24 09:57:15;;;;;;;12.17;7.87;;;4.20;82.50;;;;;;5028033;28;20504;-70
2022/01/24 09:59:42;;;;;;;10.77;7.43;;;4.50;78.80;;;;;;5029716;28;20468;-67
2022/01/24 10:02:09;;;;;;;11.40;7.40;;;4.30;77.40;;;;;;5029817;28;20512;-68
2022/01/24 10:04:38;;;;;;;14.40;7.40;;;4.00;75.10;;;;;;5029512;28;20464;-66
2022/01/24 10:07:08;;;;;;;9.07;6.60;;;3.70;77.30;;;;;;5029601;28;20992;-67
2022/01/24 10:09:38;;;;;;;10.50;6.60;;;3.80;76.20;;;;;;5029954;28;20553;-67
2022/01/24 10:12:31;;;;;;;11.50;6.27;;;4.00;75.20;;;;;;5029586;28;20467;-71
2022/01/24 10:17:46;;;;;;;14.17;7.40;;;3.90;71.10;;;;;;5029227;28;20572;-71
2022/01/24 10:20:20;;;;;;;13.70;7.90;;;3.80;72.30;;;;;;5029630;28;20460;-71
2022/01/24 10:23:02;;;;;;;12.10;6.27;;;3.50;73.80;;;;;;5029841;28;20449;-71
2022/01/24 10:25:29;;;;;;;9.10;5.77;;;3.40;74.00;;;;;;5029397;28;20477;-72
2022/01/24 10:28:02;;;;;;;12.17;6.47;;;3.70;74.20;;;;;;5029609;28;20962;-72
2022/01/24 10:30:30;;;;;;;11.50;6.63;;;4.00;73.80;;;;;;5029543;28;20593;-71
2022/01/24 10:32:57;;;;;;;7.73;5.33;;;4.40;74.40;;;;;;5029651;28;20466;-72
2022/01/24 10:35:33;;;;;;;9.67;6.30;;;4.20;69.40;;;;;;5029349;28;20472;-73
2022/01/24 10:38:24;;;;;;;8.10;5.23;;;4.10;70.70;;;;;;5029769;28;20486;-71
2022/01/24 10:40:54;;;;;;;8.87;5.50;;;4.40;68.10;;;;;;5029833;28;20453;-81
2022/01/24 10:43:24;;;;;;;9.87;6.60;;;4.80;68.50;;;;;;5029285;28;20462;-74
2022/01/24 10:45:53;;;;;;;9.17;5.83;;;5.00;71.50;;;;;;5029213;28;20524;-75
2022/01/24 10:48:26;;;;;;;8.40;5.17;;;5.30;70.00;;;;;;5029440;28;20454;-75
2022/01/24 10:51:12;;;;;;;14.30;6.50;;;5.60;65.60;;;;;;5028978;28;20909;-75
2022/01/24 10:53:42;;;;;;;9.77;6.50;;;5.40;62.20;;;;;;5029407;28;20460;-76
2022/01/24 10:56:26;;;;;;;9.33;6.83;;;4.80;62.50;;;;;;5028872;28;20529;-75
2022/01/24 10:58:53;;;;;;;10.20;6.17;;;4.40;63.40;;;;;;5029361;28;20457;-74
2022/01/24 11:01:25;;;;;;;9.37;6.37;;;4.00;65.30;;;;;;5029144;28;20533;-74
2022/01/24 11:03:59;;;;;;;9.87;6.10;;;4.00;67.80;;;;;;5028971;28;20467;-75
2022/01/24 11:06:29;;;;;;;11.03;6.30;;;3.80;68.50;;;;;;5029071;28;20496;-74
2022/01/24 11:09:18;;;;;;;12.83;7.77;;;3.80;71.80;;;;;;5029284;28;20456;-74
2022/01/24 11:11:46;;;;;;;11.67;7.57;;;4.00;72.50;;;;;;5029088;28;20458;-74
2022/01/24 11:14:17;;;;;;;11.93;7.43;;;4.00;70.80;;;;;;5028878;28;20464;-75
2022/01/24 11:16:45;;;;;;;13.00;8.03;;;3.80;69.80;;;;;;5028638;28;21065;-76
2022/01/24 11:19:18;;;;;;;10.23;7.20;;;3.50;73.50;;;;;;5028876;28;21035;-74
2022/01/24 11:21:47;;;;;;;14.70;7.03;;;3.60;73.70;;;;;;5029274;28;20577;-74
2022/01/24 11:24:19;;;;;;;12.73;7.80;;;4.00;72.60;;;;;;5029087;28;20458;-74
2022/01/24 11:26:48;;;;;;;11.33;6.87;;;4.40;72.90;;;;;;5028518;28;20587;-74
2022/01/24 11:29:18;;;;;;;10.73;6.67;;;4.90;72.60;;;;;;5029258;28;20859;-70
2022/01/24 11:31:50;;;;;;;12.97;7.77;;;5.30;68.40;;;;;;5029214;28;20520;-76
2022/01/24 11:34:30;;;;;;;13.10;6.60;;;5.50;66.90;;;;;;5028961;28;20458;-75
2022/01/24 11:36:59;;;;;;;13.23;7.80;;;5.40;70.90;;;;;;5028961;28;20551;-73
2022/01/24 11:39:26;;;;;;;10.23;5.50;;;5.30;66.10;;;;;;5029056;28;20830;-75
2022/01/24 11:41:53;;;;;;;14.30;6.33;;;5.50;65.90;;;;;;5030171;28;20516;-75
2022/01/24 11:44:22;;;;;;;11.67;7.57;;;5.60;63.10;;;;;;5032574;28;20533;-74
2022/01/24 11:46:52;;;;;;;9.50;6.20;;;5.70;63.40;;;;;;5032256;28;20525;-74
2022/01/24 11:49:26;;;;;;;11.87;6.07;;;5.70;60.00;;;;;;5032334;28;20462;-75
2022/01/24 11:52:06;;;;;;;8.13;5.80;;;5.90;59.70;;;;;;5032194;28;21082;-74
2022/01/24 11:54:48;;;;;;;11.03;6.40;;;5.80;57.00;;;;;;5032329;28;20510;-75
2022/01/24 11:57:24;;;;;;;10.80;6.43;;;5.90;58.60;;;;;;5032138;28;20539;-76
2022/01/24 11:59:54;;;;;;;10.27;5.80;;;6.10;57.80;;;;;;5032033;28;20461;-76
2022/01/24 12:02:25;;;;;;;10.53;5.83;;;6.10;57.10;;;;;;5032079;28;20826;-70
2022/01/24 12:04:59;;;;;;;9.30;5.43;;;5.90;57.90;;;;;;5032091;28;20549;-72
2022/01/24 12:07:29;;;;;;;9.10;5.40;;;5.90;57.60;;;;;;5032427;28;20501;-68
2022/01/24 12:10:17;;;;;;;9.90;5.80;;;6.00;55.80;;;;;;5032086;28;20517;-69
2022/01/24 12:12:48;;;;;;;12.37;6.23;;;5.60;58.60;;;;;;5031816;28;20546;-69
2022/01/24 12:16:04;;;;;;;9.80;5.83;;;5.80;57.10;;;;;;5031679;28;20466;-69
2022/01/24 12:18:51;;;;;;;8.37;5.63;;;6.10;58.80;;;;;;5031748;28;20460;-74
2022/01/24 12:21:23;;;;;;;11.97;6.90;;;6.40;56.00;;;;;;5031464;28;21062;-71
2022/01/24 12:23:53;;;;;;;10.97;6.30;;;6.40;55.70;;;;;;5031431;28;20491;-71
2022/01/24 12:26:26;;;;;;;10.90;6.60;;;6.20;58.40;;;;;;5031389;28;20821;-71
2022/01/24 12:28:59;;;;;;;10.03;6.90;;;5.80;57.70;;;;;;5031705;28;20459;-73
2022/01/24 12:31:29;;;;;;;10.20;6.07;;;5.20;58.00;;;;;;5031520;28;20973;-71
2022/01/24 12:34:16;;;;;;;12.90;7.90;;;4.90;58.60;;;;;;5031319;28;20505;-70
2022/01/24 12:37:04;;;;;;;8.73;5.80;;;4.40;61.20;;;;;;5031324;28;20471;-68
2022/01/24 12:39:52;;;;;;;8.33;5.53;;;4.20;58.10;;;;;;5031352;28;20455;-70
2022/01/24 12:48:14;;;;;;;9.70;5.97;;;3.40;57.70;;;;;;4988705;28;20659;-72
2022/01/24 12:50:46;;;;;;;9.03;6.10;;;3.20;58.50;;;;;;4988939;28;20595;-71
2022/01/24 12:53:15;;;;;;;11.57;6.53;;;3.50;59.60;;;;;;5009171;28;20481;-70
2022/01/24 12:55:45;;;;;;;9.00;6.27;;;3.50;59.10;;;;;;5030922;28;20473;-68
2022/01/24 12:58:12;;;;;;;10.47;7.60;;;3.40;59.10;;;;;;5029622;28;20549;-71
2022/01/24 13:00:45;;;;;;;9.80;6.67;;;3.30;60.30;;;;;;5030940;28;20455;-71
2022/01/24 13:03:14;;;;;;;11.37;7.03;;;3.20;59.10;;;;;;5031021;28;20462;-68
2022/01/24 13:05:41;;;;;;;11.97;7.10;;;3.00;61.30;;;;;;5030713;28;20485;-72
2022/01/24 13:08:08;;;;;;;10.43;6.40;;;3.30;63.60;;;;;;5030770;28;20501;-74
2022/01/24 13:10:36;;;;;;;10.53;6.70;;;3.50;60.70;;;;;;5030236;28;20465;-73
2022/01/24 13:13:07;;;;;;;10.03;6.83;;;3.60;59.10;;;;;;5030758;28;20452;-75
2022/01/24 13:21:16;;;;;;;13.30;8.27;;;3.60;59.00;;;;;;5030864;28;20480;-74
2022/01/24 13:23:50;;;;;;;14.23;9.20;;;3.50;59.20;;;;;;5030350;28;20462;-76
2022/01/24 13:26:17;;;;;;;12.20;8.43;;;3.80;59.90;;;;;;5028923;28;20840;-76
2022/01/24 13:28:45;;;;;;;10.87;7.10;;;4.40;59.20;;;;;;5030563;28;20953;-75
2022/01/24 13:31:14;;;;;;;10.93;7.80;;;4.70;56.80;;;;;;5030668;28;20454;-80
2022/01/24 13:33:46;;;;;;;12.37;7.67;;;5.00;57.20;;;;;;5030507;28;20480;-75
2022/01/24 13:36:16;;;;;;;11.13;7.43;;;5.00;55.50;;;;;;5030357;28;20478;-79
2022/01/24 13:38:45;;;;;;;11.60;8.03;;;4.80;55.10;;;;;;5030439;28;20551;-76
2022/01/24 13:41:13;;;;;;;12.13;7.47;;;4.50;55.50;;;;;;5030775;28;20774;-78
2022/01/24 13:43:50;;;;;;;11.37;7.60;;;4.30;56.50;;;;;;5030567;28;20516;-76
2022/01/24 13:46:22;;;;;;;11.17;8.00;;;4.50;56.80;;;;;;5029553;28;20555;-74
2022/01/24 13:48:51;;;;;;;12.13;8.07;;;4.20;55.90;;;;;;5030302;28;20468;-74
2022/01/24 13:51:20;;;;;;;10.87;8.03;;;4.00;56.50;;;;;;5030277;28;20456;-74
2022/01/24 13:53:48;;;;;;;10.53;7.00;;;3.80;57.40;;;;;;5030136;28;20542;-73
2022/01/24 13:56:18;;;;;;;13.40;7.93;;;3.70;57.30;;;;;;5029874;28;21014;-81
2022/01/24 13:58:59;;;;;;;12.33;8.60;;;3.40;58.40;;;;;;5030518;28;20516;-79
2022/01/24 14:01:27;;;;;;;13.97;8.50;;;3.20;59.30;;;;;;5030428;28;20456;-78
2022/01/24 14:03:58;;;;;;;11.70;8.57;;;3.00;61.60;;;;;;5029581;28;20464;-82
2022/01/24 14:06:26;;;;;;;11.63;8.20;;;2.90;60.50;;;;;;5029660;28;21053;-80
2022/01/24 14:09:05;;;;;;;12.73;8.60;;;2.70;61.80;;;;;;5029346;28;20464;-80
2022/01/24 14:11:33;;;;;;;13.20;9.00;;;2.50;62.70;;;;;;5029744;28;20470;-69
2022/01/24 14:14:05;;;;;;;12.70;7.90;;;2.30;63.70;;;;;;5029560;28;21017;-68
2022/01/24 14:16:44;;;;;;;13.37;8.20;;;2.00;64.10;;;;;;5029050;28;20490;-76
2022/01/24 14:19:11;;;;;;;15.77;9.83;;;1.90;63.80;;;;;;5029495;28;20454;-73
2022/01/24 14:21:38;;;;;;;16.47;10.60;;;1.90;64.00;;;;;;5029621;28;20455;-72
2022/01/24 14:24:08;;;;;;;14.80;10.80;;;1.70;65.10;;;;;;5029476;28;20481;-72
2022/01/24 14:26:45;;;;;;;15.03;9.43;;;1.50;65.90;;;;;;5029470;28;20562;-73
2022/01/24 14:29:16;;;;;;;18.77;9.77;;;1.60;64.70;;;;;;5029732;28;20491;-74
2022/01/24 14:31:47;;;;;;;13.87;9.80;;;1.50;65.00;;;;;;5029660;28;20933;-74
2022/01/24 14:34:17;;;;;;;14.33;9.27;;;1.50;66.20;;;;;;5029581;28;20486;-73